sensor_id;sensor_type;location;lat;lon;timestamp;P1;durP1;ratioP1;P2;durP2;ratioP2
21677;SDS011;11000;50.360;7.582;2023-07-28T00:02:12;2.07;;;1.90;;
21677;SDS011;11000;50.360;7.582;2023-07-28T00:04:35;2.23;;;2.03;;
21677;SDS011;11000;50.360;7.582;2023-07-28T00:06:56;3.13;;;2.33;;
21677;SDS011;11000;50.360;7.582;2023-07-28T00:09:17;2.30;;;2.10;;
21677;SDS011;11000;50.360;7.582;2023-07-28T00:11:37;2.00;;;1.80;;
21677;SDS011;11000;50.360;7.582;2023-07-28T00:13:58;2.70;;;1.93;;
21677;SDS011;11000;50.360;7.582;2023-07-28T00:16:19;2.50;;;1.77;;
21677;SDS011;11000;50.360;7.582;2023-07-28T00:18:40;2.37;;;1.73;;
21677;SDS011;11000;50.360;7.582;2023-07-28T00:21:00;1.73;;;1.63;;
21677;SDS011;11000;50.360;7.582;2023-07-28T00:23:21;2.00;;;1.80;;
21677;SDS011;11000;50.360;7.582;2023-07-28T00:25:41;2.40;;;2.20;;
21677;SDS011;11000;50.360;7.582;2023-07-28T00:28:02;2.30;;;2.10;;
21677;SDS011;11000;50.360;7.582;2023-07-28T00:30:23;3.20;;;2.03;;
21677;SDS011;11000;50.360;7.582;2023-07-28T00:32:43;2.67;;;2.00;;
21677;SDS011;11000;50.360;7.582;2023-07-28T00:35:04;3.00;;;1.80;;
21677;SDS011;11000;50.360;7.582;2023-07-28T00:37:25;3.07;;;1.90;;
21677;SDS011;11000;50.360;7.582;2023-07-28T00:39:45;2.40;;;2.20;;
21677;SDS011;11000;50.360;7.582;2023-07-28T00:42:06;2.67;;;2.33;;
21677;SDS011;11000;50.360;7.582;2023-07-28T00:44:26;2.13;;;1.93;;
21677;SDS011;11000;50.360;7.582;2023-07-28T00:46:47;2.33;;;2.13;;
21677;SDS011;11000;50.360;7.582;2023-07-28T00:49:08;6.00;;;2.00;;
21677;SDS011;11000;50.360;7.582;2023-07-28T00:51:28;2.00;;;1.80;;
21677;SDS011;11000;50.360;7.582;2023-07-28T00:53:49;2.10;;;1.90;;
21677;SDS011;11000;50.360;7.582;2023-07-28T00:56:12;2.40;;;2.03;;
21677;SDS011;11000;50.360;7.582;2023-07-28T00:58:34;1.87;;;1.77;;
21677;SDS011;11000;50.360;7.582;2023-07-28T01:00:54;3.33;;;2.07;;
21677;SDS011;11000;50.360;7.582;2023-07-28T01:03:15;2.23;;;1.70;;
21677;SDS011;11000;50.360;7.582;2023-07-28T01:05:41;2.27;;;1.70;;
21677;SDS011;11000;50.360;7.582;2023-07-28T01:08:11;2.43;;;1.73;;
21677;SDS011;11000;50.360;7.582;2023-07-28T01:10:49;2.30;;;1.73;;
21677;SDS011;11000;50.360;7.582;2023-07-28T01:13:10;2.97;;;1.77;;
21677;SDS011;11000;50.360;7.582;2023-07-28T01:15:30;2.83;;;1.53;;
21677;SDS011;11000;50.360;7.582;2023-07-28T01:17:51;2.00;;;1.90;;
21677;SDS011;11000;50.360;7.582;2023-07-28T01:20:12;2.00;;;1.60;;
21677;SDS011;11000;50.360;7.582;2023-07-28T01:22:53;3.80;;;1.90;;
21677;SDS011;11000;50.360;7.582;2023-07-28T01:28:00;2.67;;;1.60;;
21677;SDS011;11000;50.360;7.582;2023-07-28T01:30:21;2.00;;;1.67;;
21677;SDS011;11000;50.360;7.582;2023-07-28T01:32:45;2.23;;;1.50;;
21677;SDS011;11000;50.360;7.582;2023-07-28T01:35:07;2.57;;;1.80;;
21677;SDS011;11000;50.360;7.582;2023-07-28T01:37:28;1.57;;;1.47;;
21677;SDS011;11000;50.360;7.582;2023-07-28T01:39:49;2.10;;;1.70;;
21677;SDS011;11000;50.360;7.582;2023-07-28T01:42:09;1.90;;;1.80;;
21677;SDS011;11000;50.360;7.582;2023-07-28T01:44:30;2.63;;;1.70;;
21677;SDS011;11000;50.360;7.582;2023-07-28T01:46:50;1.70;;;1.60;;
21677;SDS011;11000;50.360;7.582;2023-07-28T01:49:11;1.93;;;1.73;;
21677;SDS011;11000;50.360;7.582;2023-07-28T01:51:31;1.90;;;1.70;;
21677;SDS011;11000;50.360;7.582;2023-07-28T01:53:52;2.27;;;1.73;;
21677;SDS011;11000;50.360;7.582;2023-07-28T01:56:12;1.63;;;1.53;;
21677;SDS011;11000;50.360;7.582;2023-07-28T01:58:33;1.20;;;1.10;;
21677;SDS011;11000;50.360;7.582;2023-07-28T02:00:53;2.37;;;1.20;;
21677;SDS011;11000;50.360;7.582;2023-07-28T02:03:14;2.13;;;1.30;;
21677;SDS011;11000;50.360;7.582;2023-07-28T02:05:34;1.50;;;1.10;;
21677;SDS011;11000;50.360;7.582;2023-07-28T02:07:55;2.00;;;1.20;;
21677;SDS011;11000;50.360;7.582;2023-07-28T02:10:16;1.20;;;1.10;;
21677;SDS011;11000;50.360;7.582;2023-07-28T02:12:37;1.00;;;0.90;;
21677;SDS011;11000;50.360;7.582;2023-07-28T02:14:57;1.30;;;1.10;;
21677;SDS011;11000;50.360;7.582;2023-07-28T02:17:18;1.30;;;1.10;;
21677;SDS011;11000;50.360;7.582;2023-07-28T02:19:39;1.53;;;1.43;;
21677;SDS011;11000;50.360;7.582;2023-07-28T02:21:59;2.10;;;1.30;;
21677;SDS011;11000;50.360;7.582;2023-07-28T02:24:19;1.80;;;1.37;;
21677;SDS011;11000;50.360;7.582;2023-07-28T02:26:40;1.20;;;1.10;;
21677;SDS011;11000;50.360;7.582;2023-07-28T02:29:00;2.03;;;1.10;;
21677;SDS011;11000;50.360;7.582;2023-07-28T02:31:21;2.00;;;1.00;;
21677;SDS011;11000;50.360;7.582;2023-07-28T02:33:41;1.00;;;0.90;;
21677;SDS011;11000;50.360;7.582;2023-07-28T02:36:05;0.90;;;0.90;;
21677;SDS011;11000;50.360;7.582;2023-07-28T02:38:25;2.20;;;0.97;;
21677;SDS011;11000;50.360;7.582;2023-07-28T02:40:46;1.20;;;1.10;;
21677;SDS011;11000;50.360;7.582;2023-07-28T02:43:06;0.80;;;0.80;;
21677;SDS011;11000;50.360;7.582;2023-07-28T02:45:27;0.90;;;0.90;;
21677;SDS011;11000;50.360;7.582;2023-07-28T02:47:47;0.77;;;0.77;;
21677;SDS011;11000;50.360;7.582;2023-07-28T02:50:08;0.83;;;0.70;;
21677;SDS011;11000;50.360;7.582;2023-07-28T02:52:29;0.70;;;0.60;;
21677;SDS011;11000;50.360;7.582;2023-07-28T02:54:49;0.80;;;0.70;;
21677;SDS011;11000;50.360;7.582;2023-07-28T02:57:10;2.10;;;0.70;;
21677;SDS011;11000;50.360;7.582;2023-07-28T02:59:30;1.20;;;0.80;;
21677;SDS011;11000;50.360;7.582;2023-07-28T03:01:51;0.70;;;0.70;;
21677;SDS011;11000;50.360;7.582;2023-07-28T03:04:11;0.73;;;0.50;;
21677;SDS011;11000;50.360;7.582;2023-07-28T03:06:32;0.43;;;0.43;;
21677;SDS011;11000;50.360;7.582;2023-07-28T03:08:53;1.13;;;0.70;;
21677;SDS011;11000;50.360;7.582;2023-07-28T03:11:13;1.80;;;0.83;;
21677;SDS011;11000;50.360;7.582;2023-07-28T03:13:34;1.47;;;0.50;;
21677;SDS011;11000;50.360;7.582;2023-07-28T03:15:54;0.77;;;0.60;;
21677;SDS011;11000;50.360;7.582;2023-07-28T03:18:15;0.50;;;0.50;;
21677;SDS011;11000;50.360;7.582;2023-07-28T03:20:35;1.13;;;0.67;;
21677;SDS011;11000;50.360;7.582;2023-07-28T03:22:56;0.80;;;0.60;;
21677;SDS011;11000;50.360;7.582;2023-07-28T03:25:16;0.70;;;0.70;;
21677;SDS011;11000;50.360;7.582;2023-07-28T03:27:37;2.50;;;0.90;;
21677;SDS011;11000;50.360;7.582;2023-07-28T03:29:57;0.80;;;0.57;;
21677;SDS011;11000;50.360;7.582;2023-07-28T03:32:18;1.80;;;0.50;;
21677;SDS011;11000;50.360;7.582;2023-07-28T03:34:38;1.27;;;0.50;;
21677;SDS011;11000;50.360;7.582;2023-07-28T03:36:59;2.73;;;0.80;;
21677;SDS011;11000;50.360;7.582;2023-07-28T03:39:20;1.33;;;0.73;;
21677;SDS011;11000;50.360;7.582;2023-07-28T03:41:40;1.33;;;0.40;;
21677;SDS011;11000;50.360;7.582;2023-07-28T03:44:01;2.00;;;0.50;;
21677;SDS011;11000;50.360;7.582;2023-07-28T03:46:21;0.60;;;0.50;;
21677;SDS011;11000;50.360;7.582;2023-07-28T03:48:42;1.53;;;0.40;;
21677;SDS011;11000;50.360;7.582;2023-07-28T03:51:02;0.70;;;0.60;;
21677;SDS011;11000;50.360;7.582;2023-07-28T03:53:23;1.27;;;0.40;;
21677;SDS011;11000;50.360;7.582;2023-07-28T03:55:43;1.30;;;0.37;;
21677;SDS011;11000;50.360;7.582;2023-07-28T03:58:04;0.93;;;0.50;;
21677;SDS011;11000;50.360;7.582;2023-07-28T04:00:24;0.60;;;0.60;;
21677;SDS011;11000;50.360;7.582;2023-07-28T04:02:45;3.27;;;0.50;;
21677;SDS011;11000;50.360;7.582;2023-07-28T04:05:06;0.50;;;0.40;;
21677;SDS011;11000;50.360;7.582;2023-07-28T04:07:27;1.13;;;0.30;;
21677;SDS011;11000;50.360;7.582;2023-07-28T04:09:47;0.90;;;0.33;;
21677;SDS011;11000;50.360;7.582;2023-07-28T04:12:08;0.40;;;0.40;;
21677;SDS011;11000;50.360;7.582;2023-07-28T04:14:28;0.40;;;0.40;;
21677;SDS011;11000;50.360;7.582;2023-07-28T04:16:49;0.50;;;0.47;;
21677;SDS011;11000;50.360;7.582;2023-07-28T04:19:09;2.57;;;0.47;;
21677;SDS011;11000;50.360;7.582;2023-07-28T04:21:30;1.40;;;0.50;;
21677;SDS011;11000;50.360;7.582;2023-07-28T04:23:50;0.40;;;0.37;;
21677;SDS011;11000;50.360;7.582;2023-07-28T04:26:11;1.30;;;0.47;;
21677;SDS011;11000;50.360;7.582;2023-07-28T04:28:31;0.53;;;0.30;;
21677;SDS011;11000;50.360;7.582;2023-07-28T04:30:52;0.50;;;0.50;;
21677;SDS011;11000;50.360;7.582;2023-07-28T04:33:12;0.83;;;0.40;;
21677;SDS011;11000;50.360;7.582;2023-07-28T04:35:33;0.30;;;0.30;;
21677;SDS011;11000;50.360;7.582;2023-07-28T04:37:53;0.63;;;0.27;;
21677;SDS011;11000;50.360;7.582;2023-07-28T04:40:14;0.67;;;0.33;;
21677;SDS011;11000;50.360;7.582;2023-07-28T04:42:34;1.13;;;0.20;;
21677;SDS011;11000;50.360;7.582;2023-07-28T04:44:56;0.97;;;0.40;;
21677;SDS011;11000;50.360;7.582;2023-07-28T04:47:16;1.07;;;0.40;;
21677;SDS011;11000;50.360;7.582;2023-07-28T04:49:37;1.00;;;0.30;;
21677;SDS011;11000;50.360;7.582;2023-07-28T04:51:57;1.23;;;0.40;;
21677;SDS011;11000;50.360;7.582;2023-07-28T04:54:18;1.00;;;0.30;;
21677;SDS011;11000;50.360;7.582;2023-07-28T04:56:38;1.00;;;0.30;;
21677;SDS011;11000;50.360;7.582;2023-07-28T04:58:59;0.30;;;0.30;;
21677;SDS011;11000;50.360;7.582;2023-07-28T05:01:19;1.50;;;0.30;;
21677;SDS011;11000;50.360;7.582;2023-07-28T05:03:40;1.27;;;0.30;;
21677;SDS011;11000;50.360;7.582;2023-07-28T05:06:02;0.47;;;0.27;;
21677;SDS011;11000;50.360;7.582;2023-07-28T05:08:24;1.37;;;0.40;;
21677;SDS011;11000;50.360;7.582;2023-07-28T05:10:44;0.30;;;0.30;;
21677;SDS011;11000;50.360;7.582;2023-07-28T05:13:05;0.10;;;0.10;;
21677;SDS011;11000;50.360;7.582;2023-07-28T05:15:25;0.20;;;0.20;;
21677;SDS011;11000;50.360;7.582;2023-07-28T05:17:46;0.50;;;0.50;;
21677;SDS011;11000;50.360;7.582;2023-07-28T05:20:06;0.77;;;0.20;;
21677;SDS011;11000;50.360;7.582;2023-07-28T05:22:27;0.20;;;0.20;;
21677;SDS011;11000;50.360;7.582;2023-07-28T05:24:48;1.27;;;0.27;;
21677;SDS011;11000;50.360;7.582;2023-07-28T05:27:08;0.93;;;0.40;;
21677;SDS011;11000;50.360;7.582;2023-07-28T05:29:29;0.53;;;0.20;;
21677;SDS011;11000;50.360;7.582;2023-07-28T05:31:49;0.57;;;0.40;;
21677;SDS011;11000;50.360;7.582;2023-07-28T05:34:10;0.20;;;0.20;;
21677;SDS011;11000;50.360;7.582;2023-07-28T05:36:32;0.90;;;0.30;;
21677;SDS011;11000;50.360;7.582;2023-07-28T05:38:52;0.43;;;0.20;;
21677;SDS011;11000;50.360;7.582;2023-07-28T05:41:13;1.13;;;0.20;;
21677;SDS011;11000;50.360;7.582;2023-07-28T05:43:34;0.63;;;0.13;;
21677;SDS011;11000;50.360;7.582;2023-07-28T05:45:56;0.10;;;0.10;;
21677;SDS011;11000;50.360;7.582;2023-07-28T05:48:21;0.13;;;0.13;;
21677;SDS011;11000;50.360;7.582;2023-07-28T05:50:43;0.40;;;0.20;;
21677;SDS011;11000;50.360;7.582;2023-07-28T05:53:03;1.90;;;0.20;;
21677;SDS011;11000;50.360;7.582;2023-07-28T05:55:24;0.30;;;0.20;;
21677;SDS011;11000;50.360;7.582;2023-07-28T05:57:45;0.73;;;0.30;;
21677;SDS011;11000;50.360;7.582;2023-07-28T06:00:06;0.93;;;0.20;;
21677;SDS011;11000;50.360;7.582;2023-07-28T06:02:29;0.20;;;0.20;;
21677;SDS011;11000;50.360;7.582;2023-07-28T06:04:50;0.87;;;0.20;;
21677;SDS011;11000;50.360;7.582;2023-07-28T06:07:10;0.23;;;0.23;;
21677;SDS011;11000;50.360;7.582;2023-07-28T06:09:31;0.10;;;0.10;;
21677;SDS011;11000;50.360;7.582;2023-07-28T06:11:53;0.83;;;0.23;;
21677;SDS011;11000;50.360;7.582;2023-07-28T06:14:13;0.20;;;0.20;;
21677;SDS011;11000;50.360;7.582;2023-07-28T06:16:34;1.47;;;0.30;;
21677;SDS011;11000;50.360;7.582;2023-07-28T06:18:55;0.33;;;0.30;;
21677;SDS011;11000;50.360;7.582;2023-07-28T06:21:15;0.30;;;0.30;;
21677;SDS011;11000;50.360;7.582;2023-07-28T06:23:36;0.87;;;0.30;;
21677;SDS011;11000;50.360;7.582;2023-07-28T06:25:56;0.50;;;0.20;;
21677;SDS011;11000;50.360;7.582;2023-07-28T06:28:17;1.90;;;0.30;;
21677;SDS011;11000;50.360;7.582;2023-07-28T06:30:37;0.80;;;0.30;;
21677;SDS011;11000;50.360;7.582;2023-07-28T06:32:58;0.30;;;0.20;;
21677;SDS011;11000;50.360;7.582;2023-07-28T06:35:19;1.00;;;0.37;;
21677;SDS011;11000;50.360;7.582;2023-07-28T06:37:39;3.30;;;0.33;;
21677;SDS011;11000;50.360;7.582;2023-07-28T06:40:00;0.30;;;0.23;;
21677;SDS011;11000;50.360;7.582;2023-07-28T06:42:20;0.40;;;0.40;;
21677;SDS011;11000;50.360;7.582;2023-07-28T06:44:43;0.30;;;0.30;;
21677;SDS011;11000;50.360;7.582;2023-07-28T06:47:04;1.30;;;0.20;;
21677;SDS011;11000;50.360;7.582;2023-07-28T06:49:25;0.27;;;0.20;;
21677;SDS011;11000;50.360;7.582;2023-07-28T06:51:45;0.67;;;0.40;;
21677;SDS011;11000;50.360;7.582;2023-07-28T06:54:06;0.60;;;0.30;;
21677;SDS011;11000;50.360;7.582;2023-07-28T06:56:31;0.57;;;0.37;;
21677;SDS011;11000;50.360;7.582;2023-07-28T06:58:52;1.73;;;0.40;;
21677;SDS011;11000;50.360;7.582;2023-07-28T07:01:13;0.47;;;0.30;;
21677;SDS011;11000;50.360;7.582;2023-07-28T07:03:33;1.70;;;0.40;;
21677;SDS011;11000;50.360;7.582;2023-07-28T07:05:54;0.90;;;0.50;;
21677;SDS011;11000;50.360;7.582;2023-07-28T07:08:14;0.90;;;0.40;;
21677;SDS011;11000;50.360;7.582;2023-07-28T07:10:35;1.43;;;0.40;;
21677;SDS011;11000;50.360;7.582;2023-07-28T07:12:55;0.47;;;0.30;;
21677;SDS011;11000;50.360;7.582;2023-07-28T07:15:16;0.40;;;0.40;;
21677;SDS011;11000;50.360;7.582;2023-07-28T07:17:37;2.87;;;0.50;;
21677;SDS011;11000;50.360;7.582;2023-07-28T07:19:57;4.97;;;0.50;;
21677;SDS011;11000;50.360;7.582;2023-07-28T07:22:18;1.67;;;0.50;;
21677;SDS011;11000;50.360;7.582;2023-07-28T07:24:38;0.80;;;0.40;;
21677;SDS011;11000;50.360;7.582;2023-07-28T07:26:59;3.20;;;0.50;;
21677;SDS011;11000;50.360;7.582;2023-07-28T07:29:19;1.63;;;0.60;;
21677;SDS011;11000;50.360;7.582;2023-07-28T07:31:40;2.97;;;0.50;;
21677;SDS011;11000;50.360;7.582;2023-07-28T07:34:00;1.07;;;0.40;;
21677;SDS011;11000;50.360;7.582;2023-07-28T07:36:21;2.87;;;0.60;;
21677;SDS011;11000;50.360;7.582;2023-07-28T07:38:42;0.70;;;0.50;;
21677;SDS011;11000;50.360;7.582;2023-07-28T07:41:06;0.30;;;0.30;;
21677;SDS011;11000;50.360;7.582;2023-07-28T07:43:30;0.87;;;0.50;;
21677;SDS011;11000;50.360;7.582;2023-07-28T07:45:52;0.37;;;0.30;;
21677;SDS011;11000;50.360;7.582;2023-07-28T07:48:14;2.50;;;0.70;;
21677;SDS011;11000;50.360;7.582;2023-07-28T07:50:35;0.40;;;0.40;;
21677;SDS011;11000;50.360;7.582;2023-07-28T07:52:55;0.70;;;0.40;;
21677;SDS011;11000;50.360;7.582;2023-07-28T07:55:16;0.50;;;0.50;;
21677;SDS011;11000;50.360;7.582;2023-07-28T07:57:36;1.40;;;0.40;;
21677;SDS011;11000;50.360;7.582;2023-07-28T07:59:57;1.67;;;0.50;;
21677;SDS011;11000;50.360;7.582;2023-07-28T08:02:18;0.57;;;0.40;;
21677;SDS011;11000;50.360;7.582;2023-07-28T08:04:38;0.47;;;0.30;;
21677;SDS011;11000;50.360;7.582;2023-07-28T08:06:58;0.53;;;0.53;;
21677;SDS011;11000;50.360;7.582;2023-07-28T08:09:19;1.57;;;0.47;;
21677;SDS011;11000;50.360;7.582;2023-07-28T08:11:39;0.30;;;0.30;;
21677;SDS011;11000;50.360;7.582;2023-07-28T08:14:00;0.73;;;0.70;;
21677;SDS011;11000;50.360;7.582;2023-07-28T08:16:21;0.57;;;0.40;;
21677;SDS011;11000;50.360;7.582;2023-07-28T08:18:41;2.43;;;0.30;;
21677;SDS011;11000;50.360;7.582;2023-07-28T08:21:02;1.10;;;0.27;;
21677;SDS011;11000;50.360;7.582;2023-07-28T08:23:22;0.40;;;0.40;;
21677;SDS011;11000;50.360;7.582;2023-07-28T08:25:43;0.40;;;0.40;;
21677;SDS011;11000;50.360;7.582;2023-07-28T08:28:04;1.43;;;0.50;;
21677;SDS011;11000;50.360;7.582;2023-07-28T08:30:24;2.20;;;0.40;;
21677;SDS011;11000;50.360;7.582;2023-07-28T08:32:45;0.43;;;0.40;;
21677;SDS011;11000;50.360;7.582;2023-07-28T08:35:06;1.77;;;0.40;;
21677;SDS011;11000;50.360;7.582;2023-07-28T08:37:28;0.87;;;0.30;;
21677;SDS011;11000;50.360;7.582;2023-07-28T08:39:49;0.77;;;0.30;;
21677;SDS011;11000;50.360;7.582;2023-07-28T08:42:09;0.37;;;0.37;;
21677;SDS011;11000;50.360;7.582;2023-07-28T08:44:30;0.77;;;0.33;;
21677;SDS011;11000;50.360;7.582;2023-07-28T08:46:52;1.43;;;0.60;;
21677;SDS011;11000;50.360;7.582;2023-07-28T08:49:13;1.50;;;0.30;;
21677;SDS011;11000;50.360;7.582;2023-07-28T08:51:33;0.50;;;0.40;;
21677;SDS011;11000;50.360;7.582;2023-07-28T08:53:54;0.40;;;0.40;;
21677;SDS011;11000;50.360;7.582;2023-07-28T08:56:14;0.50;;;0.40;;
21677;SDS011;11000;50.360;7.582;2023-07-28T08:58:35;0.50;;;0.30;;
21677;SDS011;11000;50.360;7.582;2023-07-28T09:00:56;0.77;;;0.20;;
21677;SDS011;11000;50.360;7.582;2023-07-28T09:03:20;0.40;;;0.40;;
21677;SDS011;11000;50.360;7.582;2023-07-28T09:05:42;0.23;;;0.23;;
21677;SDS011;11000;50.360;7.582;2023-07-28T09:08:04;0.20;;;0.20;;
21677;SDS011;11000;50.360;7.582;2023-07-28T09:10:24;0.40;;;0.40;;
21677;SDS011;11000;50.360;7.582;2023-07-28T09:12:46;1.37;;;0.50;;
21677;SDS011;11000;50.360;7.582;2023-07-28T09:15:08;1.20;;;0.47;;
21677;SDS011;11000;50.360;7.582;2023-07-28T09:17:31;0.70;;;0.50;;
21677;SDS011;11000;50.360;7.582;2023-07-28T09:20:01;1.00;;;0.70;;
21677;SDS011;11000;50.360;7.582;2023-07-28T09:22:22;0.50;;;0.43;;
21677;SDS011;11000;50.360;7.582;2023-07-28T09:24:43;0.40;;;0.40;;
21677;SDS011;11000;50.360;7.582;2023-07-28T09:27:03;0.97;;;0.63;;
21677;SDS011;11000;50.360;7.582;2023-07-28T09:29:24;0.30;;;0.30;;
21677;SDS011;11000;50.360;7.582;2023-07-28T09:31:48;0.30;;;0.30;;
21677;SDS011;11000;50.360;7.582;2023-07-28T09:34:10;0.43;;;0.40;;
21677;SDS011;11000;50.360;7.582;2023-07-28T09:36:31;1.03;;;0.43;;
21677;SDS011;11000;50.360;7.582;2023-07-28T09:38:53;0.40;;;0.40;;
21677;SDS011;11000;50.360;7.582;2023-07-28T09:41:14;0.60;;;0.60;;
21677;SDS011;11000;50.360;7.582;2023-07-28T09:43:35;0.77;;;0.40;;
21677;SDS011;11000;50.360;7.582;2023-07-28T09:45:57;1.47;;;0.60;;
21677;SDS011;11000;50.360;7.582;2023-07-28T09:48:17;1.47;;;0.50;;
21677;SDS011;11000;50.360;7.582;2023-07-28T09:50:40;1.47;;;0.67;;
21677;SDS011;11000;50.360;7.582;2023-07-28T09:53:02;3.07;;;0.67;;
21677;SDS011;11000;50.360;7.582;2023-07-28T09:55:23;0.80;;;0.40;;
21677;SDS011;11000;50.360;7.582;2023-07-28T09:57:45;0.40;;;0.40;;
21677;SDS011;11000;50.360;7.582;2023-07-28T10:00:10;1.17;;;0.40;;
21677;SDS011;11000;50.360;7.582;2023-07-28T10:02:32;1.87;;;0.50;;
21677;SDS011;11000;50.360;7.582;2023-07-28T10:04:53;0.47;;;0.47;;
21677;SDS011;11000;50.360;7.582;2023-07-28T10:07:16;0.23;;;0.23;;
21677;SDS011;11000;50.360;7.582;2023-07-28T10:09:36;0.40;;;0.40;;
21677;SDS011;11000;50.360;7.582;2023-07-28T10:11:58;0.53;;;0.53;;
21677;SDS011;11000;50.360;7.582;2023-07-28T10:14:35;0.70;;;0.40;;
21677;SDS011;11000;50.360;7.582;2023-07-28T10:16:58;0.77;;;0.60;;
21677;SDS011;11000;50.360;7.582;2023-07-28T10:19:21;1.00;;;0.77;;
21677;SDS011;11000;50.360;7.582;2023-07-28T10:21:45;0.43;;;0.43;;
21677;SDS011;11000;50.360;7.582;2023-07-28T10:24:06;0.43;;;0.43;;
21677;SDS011;11000;50.360;7.582;2023-07-28T10:26:30;1.47;;;0.73;;
21677;SDS011;11000;50.360;7.582;2023-07-28T10:28:55;0.50;;;0.50;;
21677;SDS011;11000;50.360;7.582;2023-07-28T10:31:29;0.40;;;0.40;;
21677;SDS011;11000;50.360;7.582;2023-07-28T10:33:50;0.67;;;0.67;;
21677;SDS011;11000;50.360;7.582;2023-07-28T10:36:18;0.60;;;0.60;;
21677;SDS011;11000;50.360;7.582;2023-07-28T10:38:41;0.83;;;0.63;;
21677;SDS011;11000;50.360;7.582;2023-07-28T10:41:07;0.60;;;0.60;;
21677;SDS011;11000;50.360;7.582;2023-07-28T10:43:38;2.73;;;0.70;;
21677;SDS011;11000;50.360;7.582;2023-07-28T10:45:59;0.50;;;0.50;;
21677;SDS011;11000;50.360;7.582;2023-07-28T10:48:21;0.97;;;0.80;;
21677;SDS011;11000;50.360;7.582;2023-07-28T10:50:42;1.17;;;0.60;;
21677;SDS011;11000;50.360;7.582;2023-07-28T10:53:03;0.97;;;0.70;;
21677;SDS011;11000;50.360;7.582;2023-07-28T10:55:24;0.70;;;0.50;;
21677;SDS011;11000;50.360;7.582;2023-07-28T10:57:47;1.23;;;0.60;;
21677;SDS011;11000;50.360;7.582;2023-07-28T11:00:09;3.17;;;0.80;;
21677;SDS011;11000;50.360;7.582;2023-07-28T11:02:32;0.80;;;0.80;;
21677;SDS011;11000;50.360;7.582;2023-07-28T11:04:53;1.00;;;0.67;;
21677;SDS011;11000;50.360;7.582;2023-07-28T11:07:14;0.73;;;0.73;;
21677;SDS011;11000;50.360;7.582;2023-07-28T11:09:35;1.50;;;0.90;;
21677;SDS011;11000;50.360;7.582;2023-07-28T11:11:55;1.50;;;0.73;;
21677;SDS011;11000;50.360;7.582;2023-07-28T11:14:16;0.60;;;0.60;;
21677;SDS011;11000;50.360;7.582;2023-07-28T11:16:38;0.70;;;0.70;;
21677;SDS011;11000;50.360;7.582;2023-07-28T11:19:01;1.47;;;0.73;;
21677;SDS011;11000;50.360;7.582;2023-07-28T11:21:23;1.17;;;0.70;;
21677;SDS011;11000;50.360;7.582;2023-07-28T11:23:45;0.80;;;0.80;;
21677;SDS011;11000;50.360;7.582;2023-07-28T11:26:05;0.80;;;0.80;;
21677;SDS011;11000;50.360;7.582;2023-07-28T11:28:31;1.30;;;0.67;;
21677;SDS011;11000;50.360;7.582;2023-07-28T11:30:52;1.20;;;0.80;;
21677;SDS011;11000;50.360;7.582;2023-07-28T11:33:13;1.00;;;1.00;;
21677;SDS011;11000;50.360;7.582;2023-07-28T11:35:34;1.93;;;0.90;;
21677;SDS011;11000;50.360;7.582;2023-07-28T11:37:54;0.80;;;0.80;;
21677;SDS011;11000;50.360;7.582;2023-07-28T11:40:17;1.67;;;1.00;;
21677;SDS011;11000;50.360;7.582;2023-07-28T11:42:46;1.10;;;0.80;;
21677;SDS011;11000;50.360;7.582;2023-07-28T11:45:10;0.80;;;0.80;;
21677;SDS011;11000;50.360;7.582;2023-07-28T11:47:33;1.17;;;1.13;;
21677;SDS011;11000;50.360;7.582;2023-07-28T11:49:54;1.00;;;1.00;;
21677;SDS011;11000;50.360;7.582;2023-07-28T11:52:14;1.00;;;0.87;;
21677;SDS011;11000;50.360;7.582;2023-07-28T11:54:35;0.97;;;0.97;;
21677;SDS011;11000;50.360;7.582;2023-07-28T11:56:56;1.37;;;1.27;;
21677;SDS011;11000;50.360;7.582;2023-07-28T11:59:18;1.10;;;1.00;;
21677;SDS011;11000;50.360;7.582;2023-07-28T12:01:59;3.37;;;1.23;;
21677;SDS011;11000;50.360;7.582;2023-07-28T12:04:28;1.27;;;1.13;;
21677;SDS011;11000;50.360;7.582;2023-07-28T12:07:00;1.67;;;1.50;;
21677;SDS011;11000;50.360;7.582;2023-07-28T12:09:23;1.53;;;1.43;;
21677;SDS011;11000;50.360;7.582;2023-07-28T12:11:43;1.70;;;1.60;;
21677;SDS011;11000;50.360;7.582;2023-07-28T12:14:04;2.07;;;1.87;;
21677;SDS011;11000;50.360;7.582;2023-07-28T12:16:34;3.73;;;1.60;;
21677;SDS011;11000;50.360;7.582;2023-07-28T12:18:58;1.50;;;1.40;;
21677;SDS011;11000;50.360;7.582;2023-07-28T12:21:19;1.80;;;1.70;;
21677;SDS011;11000;50.360;7.582;2023-07-28T12:23:39;1.60;;;1.50;;
21677;SDS011;11000;50.360;7.582;2023-07-28T12:26:00;2.67;;;1.73;;
21677;SDS011;11000;50.360;7.582;2023-07-28T12:28:20;2.80;;;1.97;;
21677;SDS011;11000;50.360;7.582;2023-07-28T12:30:41;2.03;;;1.67;;
21677;SDS011;11000;50.360;7.582;2023-07-28T12:33:01;2.30;;;2.20;;
21677;SDS011;11000;50.360;7.582;2023-07-28T12:35:22;2.43;;;2.23;;
21677;SDS011;11000;50.360;7.582;2023-07-28T12:37:43;2.30;;;2.10;;
21677;SDS011;11000;50.360;7.582;2023-07-28T12:40:04;2.50;;;1.87;;
21677;SDS011;11000;50.360;7.582;2023-07-28T12:42:26;2.03;;;1.90;;
21677;SDS011;11000;50.360;7.582;2023-07-28T12:44:46;2.17;;;2.07;;
21677;SDS011;11000;50.360;7.582;2023-07-28T12:47:07;2.00;;;1.90;;
21677;SDS011;11000;50.360;7.582;2023-07-28T12:49:28;2.97;;;2.13;;
21677;SDS011;11000;50.360;7.582;2023-07-28T12:51:49;4.57;;;1.90;;
21677;SDS011;11000;50.360;7.582;2023-07-28T12:54:10;2.27;;;2.10;;
21677;SDS011;11000;50.360;7.582;2023-07-28T12:56:30;2.10;;;2.00;;
21677;SDS011;11000;50.360;7.582;2023-07-28T12:58:51;1.80;;;1.70;;
21677;SDS011;11000;50.360;7.582;2023-07-28T13:01:11;1.80;;;1.70;;
21677;SDS011;11000;50.360;7.582;2023-07-28T13:03:32;2.10;;;1.90;;
21677;SDS011;11000;50.360;7.582;2023-07-28T13:05:52;1.60;;;1.50;;
21677;SDS011;11000;50.360;7.582;2023-07-28T13:08:13;2.07;;;1.53;;
21677;SDS011;11000;50.360;7.582;2023-07-28T13:10:33;1.63;;;1.53;;
21677;SDS011;11000;50.360;7.582;2023-07-28T13:12:54;1.87;;;1.67;;
21677;SDS011;11000;50.360;7.582;2023-07-28T13:15:15;1.40;;;1.30;;
21677;SDS011;11000;50.360;7.582;2023-07-28T13:17:35;1.63;;;1.53;;
21677;SDS011;11000;50.360;7.582;2023-07-28T13:19:57;1.40;;;1.30;;
21677;SDS011;11000;50.360;7.582;2023-07-28T13:22:17;1.43;;;1.20;;
21677;SDS011;11000;50.360;7.582;2023-07-28T13:24:38;1.17;;;1.07;;
21677;SDS011;11000;50.360;7.582;2023-07-28T13:26:58;1.17;;;1.10;;
21677;SDS011;11000;50.360;7.582;2023-07-28T13:29:19;1.30;;;1.20;;
21677;SDS011;11000;50.360;7.582;2023-07-28T13:31:39;1.40;;;1.20;;
21677;SDS011;11000;50.360;7.582;2023-07-28T13:34:00;1.00;;;1.00;;
21677;SDS011;11000;50.360;7.582;2023-07-28T13:36:20;0.90;;;0.90;;
21677;SDS011;11000;50.360;7.582;2023-07-28T13:38:41;1.20;;;1.20;;
21677;SDS011;11000;50.360;7.582;2023-07-28T13:41:03;1.10;;;1.00;;
21677;SDS011;11000;50.360;7.582;2023-07-28T13:43:26;1.20;;;1.10;;
21677;SDS011;11000;50.360;7.582;2023-07-28T13:45:46;1.80;;;1.17;;
21677;SDS011;11000;50.360;7.582;2023-07-28T13:48:06;1.10;;;1.00;;
21677;SDS011;11000;50.360;7.582;2023-07-28T13:50:27;1.37;;;1.13;;
21677;SDS011;11000;50.360;7.582;2023-07-28T13:52:48;1.30;;;1.20;;
21677;SDS011;11000;50.360;7.582;2023-07-28T13:55:09;1.40;;;1.30;;
21677;SDS011;11000;50.360;7.582;2023-07-28T13:57:29;1.47;;;1.37;;
21677;SDS011;11000;50.360;7.582;2023-07-28T13:59:51;1.50;;;1.40;;
21677;SDS011;11000;50.360;7.582;2023-07-28T14:02:12;1.63;;;1.07;;
21677;SDS011;11000;50.360;7.582;2023-07-28T14:04:33;1.57;;;1.23;;
21677;SDS011;11000;50.360;7.582;2023-07-28T14:06:54;2.40;;;1.50;;
21677;SDS011;11000;50.360;7.582;2023-07-28T14:09:14;1.80;;;1.13;;
21677;SDS011;11000;50.360;7.582;2023-07-28T14:11:35;1.17;;;1.17;;
21677;SDS011;11000;50.360;7.582;2023-07-28T14:13:55;1.10;;;1.10;;
21677;SDS011;11000;50.360;7.582;2023-07-28T14:16:16;1.83;;;1.07;;